sensor_id;sensor_type;location;lat;lon;timestamp;pressure;altitude;pressure_sealevel;temperature;humidity
77263;BME280;66373;52.334;4.806;2023-07-31T00:02:03;100827.69;;;21.28;60.58
77263;BME280;66373;52.334;4.806;2023-07-31T00:04:30;100829.44;;;21.28;60.21
77263;BME280;66373;52.334;4.806;2023-07-31T00:06:57;100775.50;;;20.99;60.17
77263;BME280;66373;52.334;4.806;2023-07-31T00:09:24;100829.44;;;21.28;60.48
77263;BME280;66373;52.334;4.806;2023-07-31T00:11:51;100821.66;;;21.26;60.74
77263;BME280;66373;52.334;4.806;2023-07-31T00:14:18;100816.56;;;21.22;60.67
77263;BME280;66373;52.334;4.806;2023-07-31T00:16:46;100822.56;;;21.25;60.79
77263;BME280;66373;52.334;4.806;2023-07-31T00:19:13;100830.41;;;21.25;60.53
77263;BME280;66373;52.334;4.806;2023-07-31T00:21:40;100819.09;;;21.25;60.77
77263;BME280;66373;52.334;4.806;2023-07-31T00:24:07;100814.72;;;21.25;60.44
77263;BME280;66373;52.334;4.806;2023-07-31T00:26:34;100811.28;;;21.23;60.73
77263;BME280;66373;52.334;4.806;2023-07-31T00:29:01;100808.66;;;21.23;61.04
77263;BME280;66373;52.334;4.806;2023-07-31T00:31:28;100807.75;;;21.24;60.66
77263;BME280;66373;52.334;4.806;2023-07-31T00:33:56;100803.38;;;21.25;60.99
77263;BME280;66373;52.334;4.806;2023-07-31T00:36:23;100811.28;;;21.23;60.63
77263;BME280;66373;52.334;4.806;2023-07-31T00:38:50;100812.13;;;21.24;60.49
77263;BME280;66373;52.334;4.806;2023-07-31T00:41:17;100812.13;;;21.24;60.62
77263;BME280;66373;52.334;4.806;2023-07-31T00:43:44;100813.09;;;21.21;61.23
77263;BME280;66373;52.334;4.806;2023-07-31T00:46:11;100808.72;;;21.22;60.86
77263;BME280;66373;52.334;4.806;2023-07-31T00:48:39;100801.78;;;21.21;60.88
77263;BME280;66373;52.334;4.806;2023-07-31T00:51:08;100802.63;;;21.21;60.66
77263;BME280;66373;52.334;4.806;2023-07-31T00:53:35;100798.31;;;21.20;60.78
77263;BME280;66373;52.334;4.806;2023-07-31T00:56:03;100797.47;;;21.18;61.14
77263;BME280;66373;52.334;4.806;2023-07-31T00:58:30;100785.50;;;21.11;60.96
77263;BME280;66373;52.334;4.806;2023-07-31T01:00:58;100787.31;;;21.09;60.84
77263;BME280;66373;52.334;4.806;2023-07-31T01:03:25;100796.63;;;21.18;60.84
77263;BME280;66373;52.334;4.806;2023-07-31T01:06:02;100792.25;;;21.18;60.63
77263;BME280;66373;52.334;4.806;2023-07-31T01:08:39;100770.16;;;21.02;60.52
77263;BME280;66373;52.334;4.806;2023-07-31T01:11:11;100785.34;;;21.16;61.11
77263;BME280;66373;52.334;4.806;2023-07-31T01:13:40;100793.19;;;21.16;61.13
77263;BME280;66373;52.334;4.806;2023-07-31T01:16:09;100790.63;;;21.14;60.72
77263;BME280;66373;52.334;4.806;2023-07-31T01:18:36;100787.13;;;21.15;60.53
77263;BME280;66373;52.334;4.806;2023-07-31T01:21:14;100776.69;;;21.14;60.59
77263;BME280;66373;52.334;4.806;2023-07-31T01:24:05;100761.41;;;21.03;61.51
77263;BME280;66373;52.334;4.806;2023-07-31T01:26:38;100780.16;;;21.14;61.22
77263;BME280;66373;52.334;4.806;2023-07-31T01:29:10;100780.16;;;21.14;60.69
77263;BME280;66373;52.334;4.806;2023-07-31T01:31:44;100778.47;;;21.13;61.04
77263;BME280;66373;52.334;4.806;2023-07-31T01:34:16;100776.84;;;21.09;61.11
77263;BME280;66373;52.334;4.806;2023-07-31T01:36:44;100756.94;;;21.05;61.20
77263;BME280;66373;52.334;4.806;2023-07-31T01:39:11;100769.88;;;21.10;61.07
77263;BME280;66373;52.334;4.806;2023-07-31T01:41:40;100767.25;;;21.10;61.36
77263;BME280;66373;52.334;4.806;2023-07-31T01:44:07;100766.38;;;21.09;60.99
77263;BME280;66373;52.334;4.806;2023-07-31T01:46:34;100764.69;;;21.08;61.19
77263;BME280;66373;52.334;4.806;2023-07-31T01:49:01;100755.97;;;21.08;60.92
77263;BME280;66373;52.334;4.806;2023-07-31T01:51:31;100757.75;;;21.07;61.43
77263;BME280;66373;52.334;4.806;2023-07-31T01:53:59;100748.38;;;21.02;61.41
77263;BME280;66373;52.334;4.806;2023-07-31T01:56:26;100737.28;;;20.95;60.82
77263;BME280;66373;52.334;4.806;2023-07-31T01:58:55;100756.03;;;21.06;61.56
77263;BME280;66373;52.334;4.806;2023-07-31T02:01:22;100748.28;;;21.05;61.98
77263;BME280;66373;52.334;4.806;2023-07-31T02:03:49;100755.19;;;21.06;61.53
77263;BME280;66373;52.334;4.806;2023-07-31T02:06:16;100748.19;;;21.06;61.27
77263;BME280;66373;52.334;4.806;2023-07-31T02:08:43;100738.63;;;21.05;61.66
77263;BME280;66373;52.334;4.806;2023-07-31T02:11:12;100736.97;;;21.04;61.89
77263;BME280;66373;52.334;4.806;2023-07-31T02:13:39;100731.72;;;21.04;61.71
77263;BME280;66373;52.334;4.806;2023-07-31T02:16:07;100731.84;;;21.01;61.54
77263;BME280;66373;52.334;4.806;2023-07-31T02:18:35;100721.56;;;20.95;61.56
77263;BME280;66373;52.334;4.806;2023-07-31T02:21:02;100733.53;;;21.02;61.56
77263;BME280;66373;52.334;4.806;2023-07-31T02:23:29;100731.88;;;20.99;62.05
77263;BME280;66373;52.334;4.806;2023-07-31T02:25:56;100723.28;;;20.96;62.16
77263;BME280;66373;52.334;4.806;2023-07-31T02:28:23;100728.50;;;20.96;61.64
77263;BME280;66373;52.334;4.806;2023-07-31T02:30:50;100730.94;;;21.02;61.26
77263;BME280;66373;52.334;4.806;2023-07-31T02:33:19;100733.53;;;21.02;61.51
77263;BME280;66373;52.334;4.806;2023-07-31T02:35:46;100721.38;;;21.01;61.64
77263;BME280;66373;52.334;4.806;2023-07-31T02:38:13;100724.03;;;20.99;61.35
77263;BME280;66373;52.334;4.806;2023-07-31T02:40:40;100717.94;;;20.99;62.04
77263;BME280;66373;52.334;4.806;2023-07-31T02:43:07;100719.75;;;20.97;61.41
77263;BME280;66373;52.334;4.806;2023-07-31T02:45:36;100711.13;;;20.95;62.39
77263;BME280;66373;52.334;4.806;2023-07-31T02:48:03;100711.97;;;20.95;62.15
77263;BME280;66373;52.334;4.806;2023-07-31T02:50:32;100711.13;;;20.95;61.84
77263;BME280;66373;52.334;4.806;2023-07-31T02:52:59;100712.81;;;20.96;61.63
77263;BME280;66373;52.334;4.806;2023-07-31T02:55:26;100708.50;;;20.95;61.77
77263;BME280;66373;52.334;4.806;2023-07-31T02:57:53;100707.59;;;20.96;61.16
77263;BME280;66373;52.334;4.806;2023-07-31T03:00:20;100698.94;;;20.94;61.21
77263;BME280;66373;52.334;4.806;2023-07-31T03:02:47;100701.50;;;20.95;61.43
77263;BME280;66373;52.334;4.806;2023-07-31T03:05:14;100691.91;;;20.96;61.22
77263;BME280;66373;52.334;4.806;2023-07-31T03:07:43;100700.66;;;20.95;61.56
77263;BME280;66373;52.334;4.806;2023-07-31T03:10:10;100692.00;;;20.93;61.76
77263;BME280;66373;52.334;4.806;2023-07-31T03:12:37;100692.81;;;20.95;61.89
77263;BME280;66373;52.334;4.806;2023-07-31T03:15:04;100692.88;;;20.93;61.88
77263;BME280;66373;52.334;4.806;2023-07-31T03:17:31;100682.41;;;20.93;61.54
77263;BME280;66373;52.334;4.806;2023-07-31T03:19:58;100678.44;;;20.82;60.88
77263;BME280;66373;52.334;4.806;2023-07-31T03:22:25;100699.91;;;20.91;61.11
77263;BME280;66373;52.334;4.806;2023-07-31T03:24:54;100700.75;;;20.92;61.84
77263;BME280;66373;52.334;4.806;2023-07-31T03:27:21;100683.38;;;20.91;61.90
77263;BME280;66373;52.334;4.806;2023-07-31T03:29:48;100690.41;;;20.89;61.82
77263;BME280;66373;52.334;4.806;2023-07-31T03:32:17;100688.59;;;20.91;62.03
77263;BME280;66373;52.334;4.806;2023-07-31T03:34:44;100675.03;;;20.80;61.61
77263;BME280;66373;52.334;4.806;2023-07-31T03:37:11;100676.75;;;20.81;62.26
77263;BME280;66373;52.334;4.806;2023-07-31T03:39:38;100678.34;;;20.85;61.55
77263;BME280;66373;52.334;4.806;2023-07-31T03:42:07;100679.91;;;20.90;61.80
77263;BME280;66373;52.334;4.806;2023-07-31T03:44:34;100670.34;;;20.89;61.95
77263;BME280;66373;52.334;4.806;2023-07-31T03:47:01;100672.06;;;20.90;61.57
77263;BME280;66373;52.334;4.806;2023-07-31T03:49:28;100643.81;;;20.77;61.47
77263;BME280;66373;52.334;4.806;2023-07-31T03:51:55;100659.13;;;20.86;62.18
77263;BME280;66373;52.334;4.806;2023-07-31T03:54:22;100662.56;;;20.88;62.54
77263;BME280;66373;52.334;4.806;2023-07-31T03:56:49;100664.25;;;20.89;61.75
77263;BME280;66373;52.334;4.806;2023-07-31T03:59:18;100648.56;;;20.89;62.33
77263;BME280;66373;52.334;4.806;2023-07-31T04:01:45;100640.94;;;20.83;61.82
77263;BME280;66373;52.334;4.806;2023-07-31T04:04:12;100645.16;;;20.87;61.95
77263;BME280;66373;52.334;4.806;2023-07-31T04:06:39;100646.88;;;20.88;62.39
77263;BME280;66373;52.334;4.806;2023-07-31T04:09:06;100639.94;;;20.87;62.27
77263;BME280;66373;52.334;4.806;2023-07-31T04:11:33;100639.06;;;20.86;62.26
77263;BME280;66373;52.334;4.806;2023-07-31T04:14:00;100639.94;;;20.87;62.20
77263;BME280;66373;52.334;4.806;2023-07-31T04:16:28;100640.09;;;20.82;62.34
77263;BME280;66373;52.334;4.806;2023-07-31T04:18:55;100639.19;;;20.83;62.07
77263;BME280;66373;52.334;4.806;2023-07-31T04:21:22;100643.44;;;20.86;61.92
77263;BME280;66373;52.334;4.806;2023-07-31T04:23:49;100629.59;;;20.84;61.71
77263;BME280;66373;52.334;4.806;2023-07-31T04:26:16;100639.06;;;20.86;62.26
77263;BME280;66373;52.334;4.806;2023-07-31T04:28:43;100636.50;;;20.85;62.28
77263;BME280;66373;52.334;4.806;2023-07-31T04:31:10;100631.34;;;20.83;62.61
77263;BME280;66373;52.334;4.806;2023-07-31T04:33:38;100630.44;;;20.84;62.13
77263;BME280;66373;52.334;4.806;2023-07-31T04:36:05;100633.97;;;20.83;61.83
77263;BME280;66373;52.334;4.806;2023-07-31T04:38:32;100628.72;;;20.83;62.40
77263;BME280;66373;52.334;4.806;2023-07-31T04:40:59;100625.31;;;20.81;62.84
77263;BME280;66373;52.334;4.806;2023-07-31T04:43:26;100611.44;;;20.79;62.55
77263;BME280;66373;52.334;4.806;2023-07-31T04:45:53;100613.09;;;20.82;62.53
77263;BME280;66373;52.334;4.806;2023-07-31T04:48:20;100615.66;;;20.83;62.39
77263;BME280;66373;52.334;4.806;2023-07-31T04:50:48;100613.09;;;20.82;62.14
77263;BME280;66373;52.334;4.806;2023-07-31T04:53:15;100610.47;;;20.82;62.22
77263;BME280;66373;52.334;4.806;2023-07-31T04:55:42;100603.53;;;20.81;62.40
77263;BME280;66373;52.334;4.806;2023-07-31T04:58:09;100604.53;;;20.78;61.89
77263;BME280;66373;52.334;4.806;2023-07-31T05:00:36;100610.47;;;20.82;62.83
77263;BME280;66373;52.334;4.806;2023-07-31T05:03:03;100595.69;;;20.81;62.20
77263;BME280;66373;52.334;4.806;2023-07-31T05:05:30;100600.03;;;20.82;62.16
77263;BME280;66373;52.334;4.806;2023-07-31T05:07:58;100589.56;;;20.82;62.43
77263;BME280;66373;52.334;4.806;2023-07-31T05:10:25;100596.50;;;20.83;62.57
77263;BME280;66373;52.334;4.806;2023-07-31T05:12:52;100585.19;;;20.82;62.40
77263;BME280;66373;52.334;4.806;2023-07-31T05:15:19;100575.84;;;20.77;62.76
77263;BME280;66373;52.334;4.806;2023-07-31T05:17:46;100573.88;;;20.82;62.31
77263;BME280;66373;52.334;4.806;2023-07-31T05:20:13;100582.63;;;20.81;63.08
77263;BME280;66373;52.334;4.806;2023-07-31T05:22:41;100584.34;;;20.82;62.58
77263;BME280;66373;52.334;4.806;2023-07-31T05:25:10;100563.56;;;20.79;63.12
77263;BME280;66373;52.334;4.806;2023-07-31T05:27:37;100571.25;;;20.82;63.72
77263;BME280;66373;52.334;4.806;2023-07-31T05:30:05;100573.88;;;20.82;62.72
77263;BME280;66373;52.334;4.806;2023-07-31T05:32:32;100560.94;;;20.79;63.07
77263;BME280;66373;52.334;4.806;2023-07-31T05:34:59;100547.03;;;20.78;63.39
77263;BME280;66373;52.334;4.806;2023-07-31T05:37:26;100552.97;;;20.82;63.41
77263;BME280;66373;52.334;4.806;2023-07-31T05:39:53;100545.97;;;20.82;63.25
77263;BME280;66373;52.334;4.806;2023-07-31T05:42:21;100532.53;;;20.70;63.60
77263;BME280;66373;52.334;4.806;2023-07-31T05:44:48;100557.34;;;20.81;63.30
77263;BME280;66373;52.334;4.806;2023-07-31T05:47:15;100542.50;;;20.82;63.76
77263;BME280;66373;52.334;4.806;2023-07-31T05:49:42;100555.56;;;20.82;62.97
77263;BME280;66373;52.334;4.806;2023-07-31T05:52:09;100523.31;;;20.59;63.73
77263;BME280;66373;52.334;4.806;2023-07-31T05:54:36;100552.06;;;20.83;63.36
77263;BME280;66373;52.334;4.806;2023-07-31T05:57:04;100549.63;;;20.78;63.79
77263;BME280;66373;52.334;4.806;2023-07-31T05:59:32;100548.59;;;20.82;63.61
77263;BME280;66373;52.334;4.806;2023-07-31T06:01:59;100556.50;;;20.81;63.71
77263;BME280;66373;52.334;4.806;2023-07-31T06:04:26;100546.88;;;20.81;63.46
77263;BME280;66373;52.334;4.806;2023-07-31T06:06:54;100539.25;;;20.77;63.45
77263;BME280;66373;52.334;4.806;2023-07-31T06:09:21;100522.06;;;20.70;63.39
77263;BME280;66373;52.334;4.806;2023-07-31T06:11:48;100546.03;;;20.81;63.74
77263;BME280;66373;52.334;4.806;2023-07-31T06:14:15;100513.75;;;20.58;63.43
77263;BME280;66373;52.334;4.806;2023-07-31T06:16:43;100544.31;;;20.80;63.68
77263;BME280;66373;52.334;4.806;2023-07-31T06:19:10;100540.81;;;20.81;63.13
77263;BME280;66373;52.334;4.806;2023-07-31T06:21:38;100530.34;;;20.81;63.48
77263;BME280;66373;52.334;4.806;2023-07-31T06:24:07;100532.19;;;20.79;63.38
77263;BME280;66373;52.334;4.806;2023-07-31T06:26:35;100522.56;;;20.79;63.78
77263;BME280;66373;52.334;4.806;2023-07-31T06:29:02;100530.34;;;20.81;63.28
77263;BME280;66373;52.334;4.806;2023-07-31T06:31:29;100513.22;;;20.74;63.44
77263;BME280;66373;52.334;4.806;2023-07-31T06:33:57;100518.19;;;20.80;63.79
77263;BME280;66373;52.334;4.806;2023-07-31T06:36:24;100501.16;;;20.70;63.51
77263;BME280;66373;52.334;4.806;2023-07-31T06:38:51;100520.78;;;20.80;63.33
77263;BME280;66373;52.334;4.806;2023-07-31T06:41:19;100511.28;;;20.79;63.00
77263;BME280;66373;52.334;4.806;2023-07-31T06:43:46;100512.09;;;20.79;63.50
77263;BME280;66373;52.334;4.806;2023-07-31T06:46:13;100502.50;;;20.80;63.28
77263;BME280;66373;52.334;4.806;2023-07-31T06:48:40;100506.06;;;20.79;63.74
77263;BME280;66373;52.334;4.806;2023-07-31T06:51:08;100489.00;;;20.69;63.24
77263;BME280;66373;52.334;4.806;2023-07-31T06:53:35;100484.78;;;20.64;63.48
77263;BME280;66373;52.334;4.806;2023-07-31T06:56:02;100473.44;;;20.65;63.19
77263;BME280;66373;52.334;4.806;2023-07-31T06:58:30;100496.41;;;20.79;63.59
77263;BME280;66373;52.334;4.806;2023-07-31T07:00:56;100492.19;;;20.77;63.67
77263;BME280;66373;52.334;4.806;2023-07-31T07:03:24;100492.97;;;20.79;63.13
77263;BME280;66373;52.334;4.806;2023-07-31T07:05:51;100491.28;;;20.78;63.72
77263;BME280;66373;52.334;4.806;2023-07-31T07:08:19;100495.72;;;20.76;63.74
77263;BME280;66373;52.334;4.806;2023-07-31T07:10:46;100495.59;;;20.79;63.16
77263;BME280;66373;52.334;4.806;2023-07-31T07:13:13;100499.97;;;20.78;63.50
77263;BME280;66373;52.334;4.806;2023-07-31T07:15:40;100488.88;;;20.72;63.55
77263;BME280;66373;52.334;4.806;2023-07-31T07:18:07;100481.31;;;20.64;63.50
77263;BME280;66373;52.334;4.806;2023-07-31T07:20:36;100497.41;;;20.77;63.77
77263;BME280;66373;52.334;4.806;2023-07-31T07:23:03;100499.13;;;20.78;63.62
77263;BME280;66373;52.334;4.806;2023-07-31T07:25:31;100493.88;;;20.78;63.53
77263;BME280;66373;52.334;4.806;2023-07-31T07:27:58;100476.84;;;20.67;63.50
77263;BME280;66373;52.334;4.806;2023-07-31T07:30:25;100485.25;;;20.76;63.57
77263;BME280;66373;52.334;4.806;2023-07-31T07:32:52;100480.13;;;20.73;63.54
77263;BME280;66373;52.334;4.806;2023-07-31T07:35:19;100491.28;;;20.78;63.97
77263;BME280;66373;52.334;4.806;2023-07-31T07:37:50;100496.56;;;20.76;63.91
77263;BME280;66373;52.334;4.806;2023-07-31T07:40:17;100496.50;;;20.78;63.40
77263;BME280;66373;52.334;4.806;2023-07-31T07:42:46;100488.66;;;20.78;63.61
77263;BME280;66373;52.334;4.806;2023-07-31T07:45:13;100484.34;;;20.77;63.80
77263;BME280;66373;52.334;4.806;2023-07-31T07:47:40;100481.72;;;20.77;63.99
77263;BME280;66373;52.334;4.806;2023-07-31T07:50:08;100495.59;;;20.79;64.02
77263;BME280;66373;52.334;4.806;2023-07-31T07:52:35;100493.88;;;20.78;63.65
77263;BME280;66373;52.334;4.806;2023-07-31T07:55:02;100493.88;;;20.78;63.87
77263;BME280;66373;52.334;4.806;2023-07-31T07:57:29;100485.16;;;20.79;64.05
77263;BME280;66373;52.334;4.806;2023-07-31T07:59:58;100474.97;;;20.71;63.88
77263;BME280;66373;52.334;4.806;2023-07-31T08:02:25;100484.28;;;20.78;63.87
77263;BME280;66373;52.334;4.806;2023-07-31T08:04:52;100474.78;;;20.76;64.26
77263;BME280;66373;52.334;4.806;2023-07-31T08:07:19;100483.44;;;20.78;64.35
77263;BME280;66373;52.334;4.806;2023-07-31T08:09:46;100475.75;;;20.73;64.36
77263;BME280;66373;52.334;4.806;2023-07-31T08:12:13;100475.59;;;20.78;64.02
77263;BME280;66373;52.334;4.806;2023-07-31T08:14:40;100466.91;;;20.77;64.28
77263;BME280;66373;52.334;4.806;2023-07-31T08:17:08;100468.59;;;20.78;64.03
77263;BME280;66373;52.334;4.806;2023-07-31T08:19:35;100467.75;;;20.78;64.13
77263;BME280;66373;52.334;4.806;2023-07-31T08:22:03;100466.91;;;20.77;64.33
77263;BME280;66373;52.334;4.806;2023-07-31T08:24:30;100471.28;;;20.77;63.89
77263;BME280;66373;52.334;4.806;2023-07-31T08:26:57;100442.13;;;20.64;64.21
77263;BME280;66373;52.334;4.806;2023-07-31T08:29:25;100465.06;;;20.79;64.46
77263;BME280;66373;52.334;4.806;2023-07-31T08:31:52;100460.03;;;20.75;64.15
77263;BME280;66373;52.334;4.806;2023-07-31T08:34:20;100452.19;;;20.75;64.09
77263;BME280;66373;52.334;4.806;2023-07-31T08:36:47;100461.53;;;20.80;64.45
77263;BME280;66373;52.334;4.806;2023-07-31T08:39:14;100465.91;;;20.80;64.97
77263;BME280;66373;52.334;4.806;2023-07-31T08:41:41;100458.06;;;20.80;64.51
77263;BME280;66373;52.334;4.806;2023-07-31T08:44:10;100461.47;;;20.82;64.55
77263;BME280;66373;52.334;4.806;2023-07-31T08:46:37;100458.84;;;20.82;64.12
77263;BME280;66373;52.334;4.806;2023-07-31T08:49:05;100464.94;;;20.82;64.15
77263;BME280;66373;52.334;4.806;2023-07-31T08:51:36;100457.16;;;20.81;64.45
77263;BME280;66373;52.334;4.806;2023-07-31T08:54:03;100465.78;;;20.83;64.47
77263;BME280;66373;52.334;4.806;2023-07-31T08:56:31;100464.09;;;20.82;64.38
77263;BME280;66373;52.334;4.806;2023-07-31T08:58:59;100455.34;;;20.83;64.62
77263;BME280;66373;52.334;4.806;2023-07-31T09:01:30;100467.50;;;20.84;64.46
77263;BME280;66373;52.334;4.806;2023-07-31T09:03:59;100459.00;;;20.79;65.03
77263;BME280;66373;52.334;4.806;2023-07-31T09:06:28;100466.63;;;20.83;64.86
77263;BME280;66373;52.334;4.806;2023-07-31T09:08:58;100465.78;;;20.83;64.63
77263;BME280;66373;52.334;4.806;2023-07-31T09:11:25;100455.72;;;20.74;65.01
77263;BME280;66373;52.334;4.806;2023-07-31T09:13:57;100461.41;;;20.83;64.70
77263;BME280;66373;52.334;4.806;2023-07-31T09:16:28;100465.78;;;20.83;64.54
77263;BME280;66373;52.334;4.806;2023-07-31T09:18:57;100472.72;;;20.84;65.11
77263;BME280;66373;52.334;4.806;2023-07-31T09:21:27;100438.31;;;20.73;64.89
77263;BME280;66373;52.334;4.806;2023-07-31T09:23:54;100444.94;;;20.81;64.88
77263;BME280;66373;52.334;4.806;2023-07-31T09:26:33;100449.19;;;20.84;65.02
77263;BME280;66373;52.334;4.806;2023-07-31T09:29:04;100437.81;;;20.85;64.93
77263;BME280;66373;52.334;4.806;2023-07-31T09:31:38;100452.72;;;20.83;65.18
77263;BME280;66373;52.334;4.806;2023-07-31T09:34:05;100465.78;;;20.83;65.13
77263;BME280;66373;52.334;4.806;2023-07-31T09:36:41;100459.66;;;20.84;64.91
77263;BME280;66373;52.334;4.806;2023-07-31T09:39:09;100452.19;;;20.75;65.21
77263;BME280;66373;52.334;4.806;2023-07-31T09:41:38;100468.47;;;20.81;65.42
77263;BME280;66373;52.334;4.806;2023-07-31T09:44:06;100459.81;;;20.79;65.18
77263;BME280;66373;52.334;4.806;2023-07-31T09:46:34;100461.41;;;20.83;64.88
77263;BME280;66373;52.334;4.806;2023-07-31T09:49:08;100450.97;;;20.83;64.89
77263;BME280;66373;52.334;4.806;2023-07-31T09:51:36;100445.84;;;20.80;65.20
77263;BME280;66373;52.334;4.806;2023-07-31T09:54:10;100442.19;;;20.84;65.23
77263;BME280;66373;52.334;4.806;2023-07-31T09:56:42;100445.84;;;20.80;65.13
77263;BME280;66373;52.334;4.806;2023-07-31T09:59:15;100446.47;;;20.87;64.94
77263;BME280;66373;52.334;4.806;2023-07-31T10:01:44;100418.19;;;20.75;65.00
77263;BME280;66373;52.334;4.806;2023-07-31T10:04:13;100438.56;;;20.88;64.77
77263;BME280;66373;52.334;4.806;2023-07-31T10:06:42;100438.50;;;20.90;65.12
77263;BME280;66373;52.334;4.806;2023-07-31T10:09:12;100441.22;;;20.87;65.26
77263;BME280;66373;52.334;4.806;2023-07-31T10:11:47;100434.31;;;20.86;64.61
77263;BME280;66373;52.334;4.806;2023-07-31T10:14:17;100446.22;;;20.93;64.82
77263;BME280;66373;52.334;4.806;2023-07-31T10:16:45;100450.59;;;20.92;64.88
77263;BME280;66373;52.334;4.806;2023-07-31T10:19:12;100454.97;;;20.92;64.35
77263;BME280;66373;52.334;4.806;2023-07-31T10:21:40;100436.84;;;20.87;64.87
77263;BME280;66373;52.334;4.806;2023-07-31T10:24:08;100446.13;;;20.96;64.52
77263;BME280;66373;52.334;4.806;2023-07-31T10:26:52;100428.97;;;20.89;64.75
77263;BME280;66373;52.334;4.806;2023-07-31T10:29:24;100439.28;;;20.92;64.55
77263;BME280;66373;52.334;4.806;2023-07-31T10:31:52;100453.03;;;20.97;64.48
77263;BME280;66373;52.334;4.806;2023-07-31T10:34:20;100442.59;;;20.97;64.37
77263;BME280;66373;52.334;4.806;2023-07-31T10:36:47;100446.00;;;20.99;64.45
77263;BME280;66373;52.334;4.806;2023-07-31T10:39:34;100437.34;;;20.97;65.10
77263;BME280;66373;52.334;4.806;2023-07-31T10:42:11;100449.53;;;20.98;64.92
77263;BME280;66373;52.334;4.806;2023-07-31T10:44:43;100423.84;;;20.86;64.62
77263;BME280;66373;52.334;4.806;2023-07-31T10:47:14;100444.97;;;21.03;64.64
77263;BME280;66373;52.334;4.806;2023-07-31T10:49:45;100438.03;;;21.02;64.50
77263;BME280;66373;52.334;4.806;2023-07-31T10:52:13;100434.63;;;21.00;64.33
77263;BME280;66373;52.334;4.806;2023-07-31T10:54:40;100449.28;;;21.04;64.64
77263;BME280;66373;52.334;4.806;2023-07-31T10:57:20;100446.56;;;21.06;64.31
77263;BME280;66373;52.334;4.806;2023-07-31T10:59:50;100430.41;;;20.96;64.38
77263;BME280;66373;52.334;4.806;2023-07-31T11:02:25;100437.81;;;21.07;64.53
77263;BME280;66373;52.334;4.806;2023-07-31T11:05:08;100433.72;;;21.01;64.68
77263;BME280;66373;52.334;4.806;2023-07-31T11:07:48;100432.75;;;21.04;64.64
77263;BME280;66373;52.334;4.806;2023-07-31T11:10:17;100442.94;;;21.10;64.67
77263;BME280;66373;52.334;4.806;2023-07-31T11:12:49;100424.91;;;21.04;64.64
77263;BME280;66373;52.334;4.806;2023-07-31T11:15:16;100441.97;;;21.12;64.54
77263;BME280;66373;52.334;4.806;2023-07-31T11:17:43;100446.28;;;21.13;64.54
77263;BME280;66373;52.334;4.806;2023-07-31T11:20:11;100432.47;;;21.10;64.59
77263;BME280;66373;52.334;4.806;2023-07-31T11:22:38;100439.28;;;21.14;64.96
77263;BME280;66373;52.334;4.806;2023-07-31T11:25:08;100429.78;;;21.11;64.49
77263;BME280;66373;52.334;4.806;2023-07-31T11:27:39;100421.03;;;21.12;64.81
77263;BME280;66373;52.334;4.806;2023-07-31T11:30:12;100426.28;;;21.12;64.95
77263;BME280;66373;52.334;4.806;2023-07-31T11:32:40;100405.47;;;21.09;64.53
77263;BME280;66373;52.334;4.806;2023-07-31T11:35:07;100409.53;;;21.16;64.41
77263;BME280;66373;52.334;4.806;2023-07-31T11:37:41;100420.06;;;21.15;64.50
77263;BME280;66373;52.334;4.806;2023-07-31T11:40:11;100416.38;;;21.20;64.53
77263;BME280;66373;52.334;4.806;2023-07-31T11:42:38;100417.28;;;21.19;64.51
77263;BME280;66373;52.334;4.806;2023-07-31T11:45:06;100396.59;;;21.13;64.67
77263;BME280;66373;52.334;4.806;2023-07-31T11:47:36;100416.38;;;21.20;64.64
77263;BME280;66373;52.334;4.806;2023-07-31T11:50:06;100414.56;;;21.22;64.30
77263;BME280;66373;52.334;4.806;2023-07-31T11:52:38;100419.00;;;21.20;64.49
77263;BME280;66373;52.334;4.806;2023-07-31T11:55:08;100423.31;;;21.21;64.69
77263;BME280;66373;52.334;4.806;2023-07-31T11:57:37;100425.31;;;21.15;64.36
77263;BME280;66373;52.334;4.806;2023-07-31T12:00:09;100438.19;;;21.19;64.33
77263;BME280;66373;52.334;4.806;2023-07-31T12:02:40;100435.75;;;21.15;65.16
77263;BME280;66373;52.334;4.806;2023-07-31T12:05:10;100444.25;;;21.21;64.69
77263;BME280;66373;52.334;4.806;2023-07-31T12:07:49;100428.09;;;21.10;64.70
77263;BME280;66373;52.334;4.806;2023-07-31T12:10:26;100429.47;;;21.20;65.22
77263;BME280;66373;52.334;4.806;2023-07-31T12:13:04;100444.19;;;21.23;64.79
77263;BME280;66373;52.334;4.806;2023-07-31T12:15:36;100400.00;;;21.15;64.79
77263;BME280;66373;52.334;4.806;2023-07-31T12:18:10;100424.13;;;21.23;65.02
77263;BME280;66373;52.334;4.806;2023-07-31T12:20:41;100345.59;;;20.81;64.96
77263;BME280;66373;52.334;4.806;2023-07-31T12:23:14;100402.34;;;21.23;64.84
77263;BME280;66373;52.334;4.806;2023-07-31T12:25:42;100398.75;;;21.25;64.20
77263;BME280;66373;52.334;4.806;2023-07-31T12:28:09;100380.78;;;21.16;64.62
77263;BME280;66373;52.334;4.806;2023-07-31T12:30:39;100403.06;;;21.26;64.66
77263;BME280;66373;52.334;4.806;2023-07-31T12:33:13;100412.56;;;21.29;64.18
77263;BME280;66373;52.334;4.806;2023-07-31T12:35:45;100409.16;;;21.27;64.70
77263;BME280;66373;52.334;4.806;2023-07-31T12:38:12;100401.38;;;21.25;64.48
77263;BME280;66373;52.334;4.806;2023-07-31T12:40:41;100400.44;;;21.26;65.35
77263;BME280;66373;52.334;4.806;2023-07-31T12:43:09;100375.00;;;21.08;64.81
77263;BME280;66373;52.334;4.806;2023-07-31T12:45:36;100395.16;;;21.28;64.33
77263;BME280;66373;52.334;4.806;2023-07-31T12:48:03;100394.25;;;21.29;64.67
77263;BME280;66373;52.334;4.806;2023-07-31T12:50:33;100384.63;;;21.29;64.40
77263;BME280;66373;52.334;4.806;2023-07-31T12:53:02;100381.34;;;21.24;64.83
77263;BME280;66373;52.334;4.806;2023-07-31T12:55:31;100393.16;;;21.33;64.55
77263;BME280;66373;52.334;4.806;2023-07-31T12:57:59;100402.66;;;21.36;65.52